sensor_id;sensor_type;location;lat;lon;timestamp;temperature;humidity
4406;DHT22;2216;53.806;11.598;2022-12-07T00:01:15;2.10;83.90
4406;DHT22;2216;53.806;11.598;2022-12-07T00:03:44;2.10;83.90
4406;DHT22;2216;53.806;11.598;2022-12-07T00:06:13;2.20;83.90
4406;DHT22;2216;53.806;11.598;2022-12-07T00:08:40;2.20;83.90
4406;DHT22;2216;53.806;11.598;2022-12-07T00:13:41;2.20;83.90
4406;DHT22;2216;53.806;11.598;2022-12-07T00:16:13;2.20;83.80
4406;DHT22;2216;53.806;11.598;2022-12-07T00:18:41;2.10;83.70
4406;DHT22;2216;53.806;11.598;2022-12-07T00:21:10;2.20;83.80
4406;DHT22;2216;53.806;11.598;2022-12-07T00:23:44;2.10;83.70
4406;DHT22;2216;53.806;11.598;2022-12-07T00:26:12;2.10;83.70
4406;DHT22;2216;53.806;11.598;2022-12-07T00:28:47;2.10;83.70
4406;DHT22;2216;53.806;11.598;2022-12-07T00:31:15;2.10;83.80
4406;DHT22;2216;53.806;11.598;2022-12-07T00:33:42;2.20;83.90
4406;DHT22;2216;53.806;11.598;2022-12-07T00:36:17;2.10;83.80
4406;DHT22;2216;53.806;11.598;2022-12-07T00:38:46;2.10;83.80
4406;DHT22;2216;53.806;11.598;2022-12-07T00:41:20;2.10;83.80
4406;DHT22;2216;53.806;11.598;2022-12-07T00:43:49;2.10;83.80
4406;DHT22;2216;53.806;11.598;2022-12-07T00:46:16;2.10;83.90
4406;DHT22;2216;53.806;11.598;2022-12-07T00:48:42;2.10;83.80
4406;DHT22;2216;53.806;11.598;2022-12-07T00:51:10;2.10;83.80
4406;DHT22;2216;53.806;11.598;2022-12-07T00:53:38;2.10;83.80
4406;DHT22;2216;53.806;11.598;2022-12-07T00:56:28;2.10;83.80
4406;DHT22;2216;53.806;11.598;2022-12-07T00:59:00;2.30;84.00
4406;DHT22;2216;53.806;11.598;2022-12-07T01:01:29;2.10;83.90
4406;DHT22;2216;53.806;11.598;2022-12-07T01:03:56;2.20;84.00
4406;DHT22;2216;53.806;11.598;2022-12-07T01:06:23;2.20;84.00
4406;DHT22;2216;53.806;11.598;2022-12-07T01:08:49;2.20;84.10
4406;DHT22;2216;53.806;11.598;2022-12-07T01:11:18;2.20;84.10
4406;DHT22;2216;53.806;11.598;2022-12-07T01:13:46;2.20;84.10
4406;DHT22;2216;53.806;11.598;2022-12-07T01:16:14;2.20;84.10
4406;DHT22;2216;53.806;11.598;2022-12-07T01:18:41;2.10;84.00
4406;DHT22;2216;53.806;11.598;2022-12-07T01:21:16;2.30;84.20
4406;DHT22;2216;53.806;11.598;2022-12-07T01:23:43;2.30;84.20
4406;DHT22;2216;53.806;11.598;2022-12-07T01:26:15;2.30;84.10
4406;DHT22;2216;53.806;11.598;2022-12-07T01:28:42;2.30;84.10
4406;DHT22;2216;53.806;11.598;2022-12-07T01:31:10;2.30;84.10
4406;DHT22;2216;53.806;11.598;2022-12-07T01:33:40;2.40;84.20
4406;DHT22;2216;53.806;11.598;2022-12-07T01:38:38;2.40;84.20
4406;DHT22;2216;53.806;11.598;2022-12-07T01:41:04;2.40;84.20
4406;DHT22;2216;53.806;11.598;2022-12-07T01:43:32;2.40;84.10
4406;DHT22;2216;53.806;11.598;2022-12-07T01:45:59;2.50;84.20
4406;DHT22;2216;53.806;11.598;2022-12-07T01:48:34;2.50;84.20
4406;DHT22;2216;53.806;11.598;2022-12-07T01:51:08;2.40;84.10
4406;DHT22;2216;53.806;11.598;2022-12-07T01:53:38;2.50;84.20
4406;DHT22;2216;53.806;11.598;2022-12-07T01:56:11;2.60;84.30
4406;DHT22;2216;53.806;11.598;2022-12-07T01:58:44;2.60;84.20
4406;DHT22;2216;53.806;11.598;2022-12-07T02:01:10;2.60;84.20
4406;DHT22;2216;53.806;11.598;2022-12-07T02:03:42;2.60;84.30
4406;DHT22;2216;53.806;11.598;2022-12-07T02:06:12;2.80;84.30
4406;DHT22;2216;53.806;11.598;2022-12-07T02:08:40;2.60;84.20
4406;DHT22;2216;53.806;11.598;2022-12-07T02:11:07;2.70;85.00
4406;DHT22;2216;53.806;11.598;2022-12-07T02:13:35;2.70;84.30
4406;DHT22;2216;53.806;11.598;2022-12-07T02:16:25;2.60;84.20
4406;DHT22;2216;53.806;11.598;2022-12-07T02:19:39;2.80;84.30
4406;DHT22;2216;53.806;11.598;2022-12-07T02:35:00;2.90;85.00
4406;DHT22;2216;53.806;11.598;2022-12-07T02:40:47;2.90;84.30
4406;DHT22;2216;53.806;11.598;2022-12-07T02:46:03;2.90;84.30
4406;DHT22;2216;53.806;11.598;2022-12-07T02:48:32;3.00;84.40
4406;DHT22;2216;53.806;11.598;2022-12-07T02:50:58;2.90;84.30
4406;DHT22;2216;53.806;11.598;2022-12-07T02:53:35;3.00;84.40
4406;DHT22;2216;53.806;11.598;2022-12-07T02:59:02;3.00;84.40
4406;DHT22;2216;53.806;11.598;2022-12-07T03:01:42;3.10;84.40
4406;DHT22;2216;53.806;11.598;2022-12-07T03:10:27;3.10;84.30
4406;DHT22;2216;53.806;11.598;2022-12-07T03:13:17;3.20;84.40
4406;DHT22;2216;53.806;11.598;2022-12-07T03:15:58;3.20;84.30
4406;DHT22;2216;53.806;11.598;2022-12-07T03:18:29;3.20;84.30
4406;DHT22;2216;53.806;11.598;2022-12-07T03:21:00;3.20;84.30
4406;DHT22;2216;53.806;11.598;2022-12-07T03:23:30;3.20;84.30
4406;DHT22;2216;53.806;11.598;2022-12-07T03:26:00;3.30;84.40
4406;DHT22;2216;53.806;11.598;2022-12-07T03:28:31;3.30;84.40
4406;DHT22;2216;53.806;11.598;2022-12-07T03:33:49;3.30;84.40
4406;DHT22;2216;53.806;11.598;2022-12-07T03:36:28;3.40;84.40
4406;DHT22;2216;53.806;11.598;2022-12-07T03:39:12;3.40;84.30
4406;DHT22;2216;53.806;11.598;2022-12-07T03:41:44;3.40;84.30
4406;DHT22;2216;53.806;11.598;2022-12-07T03:44:11;3.40;84.30
4406;DHT22;2216;53.806;11.598;2022-12-07T03:46:44;3.40;84.30
4406;DHT22;2216;53.806;11.598;2022-12-07T03:49:40;3.40;84.30
4406;DHT22;2216;53.806;11.598;2022-12-07T03:52:20;3.40;84.30
4406;DHT22;2216;53.806;11.598;2022-12-07T03:55:05;3.50;84.30
4406;DHT22;2216;53.806;11.598;2022-12-07T03:57:35;3.50;84.30
4406;DHT22;2216;53.806;11.598;2022-12-07T04:00:03;3.40;84.20
4406;DHT22;2216;53.806;11.598;2022-12-07T04:02:31;3.50;84.20
4406;DHT22;2216;53.806;11.598;2022-12-07T04:04:57;3.50;84.20
4406;DHT22;2216;53.806;11.598;2022-12-07T04:07:23;3.50;84.10
4406;DHT22;2216;53.806;11.598;2022-12-07T04:09:48;3.50;84.10
4406;DHT22;2216;53.806;11.598;2022-12-07T04:12:14;3.40;84.00
4406;DHT22;2216;53.806;11.598;2022-12-07T04:14:40;3.50;84.10
4406;DHT22;2216;53.806;11.598;2022-12-07T04:17:06;3.50;84.10
4406;DHT22;2216;53.806;11.598;2022-12-07T04:19:33;3.50;84.00
4406;DHT22;2216;53.806;11.598;2022-12-07T04:22:01;3.50;84.00
4406;DHT22;2216;53.806;11.598;2022-12-07T04:24:27;3.50;84.00
4406;DHT22;2216;53.806;11.598;2022-12-07T04:26:53;3.40;84.00
4406;DHT22;2216;53.806;11.598;2022-12-07T04:29:20;3.40;83.90
4406;DHT22;2216;53.806;11.598;2022-12-07T04:31:46;3.50;84.00
4406;DHT22;2216;53.806;11.598;2022-12-07T04:34:12;3.40;84.00
4406;DHT22;2216;53.806;11.598;2022-12-07T04:36:39;3.40;84.00
4406;DHT22;2216;53.806;11.598;2022-12-07T04:39:07;3.40;84.00
4406;DHT22;2216;53.806;11.598;2022-12-07T04:41:34;3.30;84.00
4406;DHT22;2216;53.806;11.598;2022-12-07T04:44:02;3.40;84.10
4406;DHT22;2216;53.806;11.598;2022-12-07T04:46:31;3.40;84.10
4406;DHT22;2216;53.806;11.598;2022-12-07T04:48:57;3.40;84.10
4406;DHT22;2216;53.806;11.598;2022-12-07T04:51:26;3.40;84.10
4406;DHT22;2216;53.806;11.598;2022-12-07T04:53:53;3.50;84.20
4406;DHT22;2216;53.806;11.598;2022-12-07T04:56:19;3.50;84.20
4406;DHT22;2216;53.806;11.598;2022-12-07T04:58:47;3.50;84.20
4406;DHT22;2216;53.806;11.598;2022-12-07T05:01:14;3.60;84.30
4406;DHT22;2216;53.806;11.598;2022-12-07T05:03:41;3.50;84.20
4406;DHT22;2216;53.806;11.598;2022-12-07T05:06:07;3.50;84.30
4406;DHT22;2216;53.806;11.598;2022-12-07T05:08:34;3.70;84.40
4406;DHT22;2216;53.806;11.598;2022-12-07T05:11:00;3.50;84.20
4406;DHT22;2216;53.806;11.598;2022-12-07T05:13:26;3.50;84.30
4406;DHT22;2216;53.806;11.598;2022-12-07T05:15:52;3.50;84.20
4406;DHT22;2216;53.806;11.598;2022-12-07T05:18:18;3.60;84.30
4406;DHT22;2216;53.806;11.598;2022-12-07T05:20:44;3.50;84.20
4406;DHT22;2216;53.806;11.598;2022-12-07T05:23:10;3.60;84.30
4406;DHT22;2216;53.806;11.598;2022-12-07T05:25:36;3.60;84.30
4406;DHT22;2216;53.806;11.598;2022-12-07T05:28:03;3.60;84.30
4406;DHT22;2216;53.806;11.598;2022-12-07T05:30:29;3.60;84.20
4406;DHT22;2216;53.806;11.598;2022-12-07T05:32:55;3.60;84.20
4406;DHT22;2216;53.806;11.598;2022-12-07T05:35:21;3.60;84.20
4406;DHT22;2216;53.806;11.598;2022-12-07T05:37:47;3.70;84.30
4406;DHT22;2216;53.806;11.598;2022-12-07T05:40:14;3.60;84.20
4406;DHT22;2216;53.806;11.598;2022-12-07T05:42:40;3.60;84.20
4406;DHT22;2216;53.806;11.598;2022-12-07T05:45:07;3.60;84.30
4406;DHT22;2216;53.806;11.598;2022-12-07T05:47:34;3.70;84.20
4406;DHT22;2216;53.806;11.598;2022-12-07T05:49:59;3.60;84.10
4406;DHT22;2216;53.806;11.598;2022-12-07T05:52:25;3.60;84.10
4406;DHT22;2216;53.806;11.598;2022-12-07T05:54:51;3.60;84.00
4406;DHT22;2216;53.806;11.598;2022-12-07T05:57:18;3.60;84.00
4406;DHT22;2216;53.806;11.598;2022-12-07T05:59:44;3.60;84.00
4406;DHT22;2216;53.806;11.598;2022-12-07T06:02:11;3.60;84.00
4406;DHT22;2216;53.806;11.598;2022-12-07T06:04:44;3.50;84.00
4406;DHT22;2216;53.806;11.598;2022-12-07T06:07:13;3.50;84.60
4406;DHT22;2216;53.806;11.598;2022-12-07T06:09:40;3.50;84.00
4406;DHT22;2216;53.806;11.598;2022-12-07T06:12:06;3.50;84.10
4406;DHT22;2216;53.806;11.598;2022-12-07T06:14:50;3.40;84.10
4406;DHT22;2216;53.806;11.598;2022-12-07T06:17:16;3.40;84.10
4406;DHT22;2216;53.806;11.598;2022-12-07T06:19:42;3.40;84.10
4406;DHT22;2216;53.806;11.598;2022-12-07T06:22:09;3.50;84.10
4406;DHT22;2216;53.806;11.598;2022-12-07T06:24:36;3.40;84.30
4406;DHT22;2216;53.806;11.598;2022-12-07T06:27:03;3.50;84.30
4406;DHT22;2216;53.806;11.598;2022-12-07T06:29:29;3.40;84.10
4406;DHT22;2216;53.806;11.598;2022-12-07T06:31:55;3.50;84.20
4406;DHT22;2216;53.806;11.598;2022-12-07T06:34:22;3.40;84.10
4406;DHT22;2216;53.806;11.598;2022-12-07T06:36:49;3.40;84.10
4406;DHT22;2216;53.806;11.598;2022-12-07T06:39:21;3.60;84.20
4406;DHT22;2216;53.806;11.598;2022-12-07T06:41:49;3.40;84.10
4406;DHT22;2216;53.806;11.598;2022-12-07T06:44:17;3.40;84.10
4406;DHT22;2216;53.806;11.598;2022-12-07T06:46:43;3.60;84.30
4406;DHT22;2216;53.806;11.598;2022-12-07T06:49:09;3.50;84.10
4406;DHT22;2216;53.806;11.598;2022-12-07T06:51:34;3.40;84.00
4406;DHT22;2216;53.806;11.598;2022-12-07T06:54:05;3.40;84.00
4406;DHT22;2216;53.806;11.598;2022-12-07T06:56:30;3.40;84.10
4406;DHT22;2216;53.806;11.598;2022-12-07T06:58:56;3.40;84.10
4406;DHT22;2216;53.806;11.598;2022-12-07T07:01:22;3.40;84.10
4406;DHT22;2216;53.806;11.598;2022-12-07T07:03:47;3.50;84.20
4406;DHT22;2216;53.806;11.598;2022-12-07T07:06:14;3.40;84.10
4406;DHT22;2216;53.806;11.598;2022-12-07T07:08:40;3.40;84.10
4406;DHT22;2216;53.806;11.598;2022-12-07T07:11:07;3.40;84.10
4406;DHT22;2216;53.806;11.598;2022-12-07T07:13:33;3.40;84.10
4406;DHT22;2216;53.806;11.598;2022-12-07T07:15:59;3.40;84.10
4406;DHT22;2216;53.806;11.598;2022-12-07T07:18:25;3.40;84.00
4406;DHT22;2216;53.806;11.598;2022-12-07T07:20:52;3.40;84.00
4406;DHT22;2216;53.806;11.598;2022-12-07T07:23:18;3.40;84.00
4406;DHT22;2216;53.806;11.598;2022-12-07T07:25:44;3.40;83.90
4406;DHT22;2216;53.806;11.598;2022-12-07T07:28:10;3.40;83.90
4406;DHT22;2216;53.806;11.598;2022-12-07T07:30:36;3.40;83.90
4406;DHT22;2216;53.806;11.598;2022-12-07T07:33:03;3.30;83.80
4406;DHT22;2216;53.806;11.598;2022-12-07T07:35:32;3.30;83.80
4406;DHT22;2216;53.806;11.598;2022-12-07T07:37:58;3.30;83.70
4406;DHT22;2216;53.806;11.598;2022-12-07T07:40:25;3.50;83.80
4406;DHT22;2216;53.806;11.598;2022-12-07T07:42:52;3.20;84.00
4406;DHT22;2216;53.806;11.598;2022-12-07T07:45:20;3.20;83.60
4406;DHT22;2216;53.806;11.598;2022-12-07T07:47:47;3.10;83.50
4406;DHT22;2216;53.806;11.598;2022-12-07T07:50:13;3.10;83.40
4406;DHT22;2216;53.806;11.598;2022-12-07T07:52:40;3.10;83.40
4406;DHT22;2216;53.806;11.598;2022-12-07T07:55:06;3.00;83.40
4406;DHT22;2216;53.806;11.598;2022-12-07T07:57:34;3.00;83.30
4406;DHT22;2216;53.806;11.598;2022-12-07T08:00:01;2.90;83.30
4406;DHT22;2216;53.806;11.598;2022-12-07T08:02:28;2.90;83.30
4406;DHT22;2216;53.806;11.598;2022-12-07T08:04:54;2.80;83.20
4406;DHT22;2216;53.806;11.598;2022-12-07T08:07:20;2.80;83.30
4406;DHT22;2216;53.806;11.598;2022-12-07T08:09:46;2.70;83.30
4406;DHT22;2216;53.806;11.598;2022-12-07T08:12:12;2.80;83.40
4406;DHT22;2216;53.806;11.598;2022-12-07T08:14:37;2.70;83.40
4406;DHT22;2216;53.806;11.598;2022-12-07T08:17:03;2.70;83.40
4406;DHT22;2216;53.806;11.598;2022-12-07T08:19:29;2.60;83.30
4406;DHT22;2216;53.806;11.598;2022-12-07T08:21:55;2.60;83.40
4406;DHT22;2216;53.806;11.598;2022-12-07T08:24:21;2.50;83.40
4406;DHT22;2216;53.806;11.598;2022-12-07T08:26:47;2.70;83.60
4406;DHT22;2216;53.806;11.598;2022-12-07T08:29:13;2.50;83.50
4406;DHT22;2216;53.806;11.598;2022-12-07T08:31:39;2.50;83.50
4406;DHT22;2216;53.806;11.598;2022-12-07T08:34:05;2.50;83.60
4406;DHT22;2216;53.806;11.598;2022-12-07T08:36:30;2.50;83.60
4406;DHT22;2216;53.806;11.598;2022-12-07T08:38:56;2.50;83.70
4406;DHT22;2216;53.806;11.598;2022-12-07T08:41:22;2.50;83.70
4406;DHT22;2216;53.806;11.598;2022-12-07T08:43:47;2.40;83.80
4406;DHT22;2216;53.806;11.598;2022-12-07T08:46:20;2.40;83.80
4406;DHT22;2216;53.806;11.598;2022-12-07T08:48:52;2.40;83.80
4406;DHT22;2216;53.806;11.598;2022-12-07T08:51:23;2.50;84.00
4406;DHT22;2216;53.806;11.598;2022-12-07T08:53:50;2.40;83.90
4406;DHT22;2216;53.806;11.598;2022-12-07T08:56:17;2.40;84.00
4406;DHT22;2216;53.806;11.598;2022-12-07T08:58:43;2.40;84.00
4406;DHT22;2216;53.806;11.598;2022-12-07T09:01:10;2.40;84.00
4406;DHT22;2216;53.806;11.598;2022-12-07T09:03:35;2.40;84.00
4406;DHT22;2216;53.806;11.598;2022-12-07T09:06:01;2.40;84.00
4406;DHT22;2216;53.806;11.598;2022-12-07T09:08:34;2.40;84.00
4406;DHT22;2216;53.806;11.598;2022-12-07T09:11:02;2.60;84.20
4406;DHT22;2216;53.806;11.598;2022-12-07T09:13:28;2.50;84.10
4406;DHT22;2216;53.806;11.598;2022-12-07T09:15:54;2.50;84.20
4406;DHT22;2216;53.806;11.598;2022-12-07T09:18:19;2.50;84.10
4406;DHT22;2216;53.806;11.598;2022-12-07T09:20:45;2.50;84.10
4406;DHT22;2216;53.806;11.598;2022-12-07T09:23:11;2.50;84.20
4406;DHT22;2216;53.806;11.598;2022-12-07T09:25:36;2.50;84.10
4406;DHT22;2216;53.806;11.598;2022-12-07T09:28:02;2.50;84.20
4406;DHT22;2216;53.806;11.598;2022-12-07T09:30:28;2.50;84.10
4406;DHT22;2216;53.806;11.598;2022-12-07T09:32:56;2.60;84.20
4406;DHT22;2216;53.806;11.598;2022-12-07T09:35:23;2.50;84.10
4406;DHT22;2216;53.806;11.598;2022-12-07T09:37:49;2.50;84.20
4406;DHT22;2216;53.806;11.598;2022-12-07T09:40:16;2.60;84.20
4406;DHT22;2216;53.806;11.598;2022-12-07T09:42:47;2.50;84.20
4406;DHT22;2216;53.806;11.598;2022-12-07T09:45:21;2.60;84.40
4406;DHT22;2216;53.806;11.598;2022-12-07T09:47:49;2.60;84.40
4406;DHT22;2216;53.806;11.598;2022-12-07T09:50:24;2.70;84.50
4406;DHT22;2216;53.806;11.598;2022-12-07T09:52:52;2.70;84.50
4406;DHT22;2216;53.806;11.598;2022-12-07T09:55:28;2.70;84.60
4406;DHT22;2216;53.806;11.598;2022-12-07T09:57:55;2.70;84.50
4406;DHT22;2216;53.806;11.598;2022-12-07T10:00:22;2.70;84.50
4406;DHT22;2216;53.806;11.598;2022-12-07T10:02:56;2.80;84.50
4406;DHT22;2216;53.806;11.598;2022-12-07T10:05:34;2.80;84.50
4406;DHT22;2216;53.806;11.598;2022-12-07T10:08:08;2.80;84.60
4406;DHT22;2216;53.806;11.598;2022-12-07T10:10:36;2.90;84.50
4406;DHT22;2216;53.806;11.598;2022-12-07T10:13:07;2.90;84.50
4406;DHT22;2216;53.806;11.598;2022-12-07T10:15:48;2.90;84.60
4406;DHT22;2216;53.806;11.598;2022-12-07T10:18:32;3.00;84.60
4406;DHT22;2216;53.806;11.598;2022-12-07T10:23:35;3.00;84.70
4406;DHT22;2216;53.806;11.598;2022-12-07T10:26:33;3.10;85.20
4406;DHT22;2216;53.806;11.598;2022-12-07T10:29:17;3.10;84.80
4406;DHT22;2216;53.806;11.598;2022-12-07T10:31:54;3.20;84.90
4406;DHT22;2216;53.806;11.598;2022-12-07T10:34:28;3.30;85.00
4406;DHT22;2216;53.806;11.598;2022-12-07T10:39:51;3.30;84.80
4406;DHT22;2216;53.806;11.598;2022-12-07T10:42:29;3.30;84.70
4406;DHT22;2216;53.806;11.598;2022-12-07T10:45:09;3.40;84.70
4406;DHT22;2216;53.806;11.598;2022-12-07T10:47:44;3.40;84.80
4406;DHT22;2216;53.806;11.598;2022-12-07T10:50:41;3.40;84.70
4406;DHT22;2216;53.806;11.598;2022-12-07T10:56:33;3.50;84.70
4406;DHT22;2216;53.806;11.598;2022-12-07T11:05:23;3.50;84.50
4406;DHT22;2216;53.806;11.598;2022-12-07T11:08:13;3.50;84.50
4406;DHT22;2216;53.806;11.598;2022-12-07T11:11:09;3.50;84.40
4406;DHT22;2216;53.806;11.598;2022-12-07T11:17:12;3.50;84.40
4406;DHT22;2216;53.806;11.598;2022-12-07T11:22:59;3.60;84.40
4406;DHT22;2216;53.806;11.598;2022-12-07T11:28:55;3.60;84.50
4406;DHT22;2216;53.806;11.598;2022-12-07T11:37:16;3.70;84.50
4406;DHT22;2216;53.806;11.598;2022-12-07T11:39:49;3.70;84.50
4406;DHT22;2216;53.806;11.598;2022-12-07T11:42:24;3.70;84.60
4406;DHT22;2216;53.806;11.598;2022-12-07T11:45:16;3.80;84.60
4406;DHT22;2216;53.806;11.598;2022-12-07T11:50:50;3.90;84.90
4406;DHT22;2216;53.806;11.598;2022-12-07T11:53:23;4.00;85.00
4406;DHT22;2216;53.806;11.598;2022-12-07T11:56:16;4.00;85.10
4406;DHT22;2216;53.806;11.598;2022-12-07T12:02:33;4.20;84.80
4406;DHT22;2216;53.806;11.598;2022-12-07T12:04:54;4.20;84.70
4406;DHT22;2216;53.806;11.598;2022-12-07T12:07:26;4.30;84.70
4406;DHT22;2216;53.806;11.598;2022-12-07T12:09:59;4.30;84.60
4406;DHT22;2216;53.806;11.598;2022-12-07T12:21:16;4.40;84.10
4406;DHT22;2216;53.806;11.598;2022-12-07T12:23:50;4.40;84.40
4406;DHT22;2216;53.806;11.598;2022-12-07T12:26:22;4.30;83.80
4406;DHT22;2216;53.806;11.598;2022-12-07T12:28:59;4.30;83.90
4406;DHT22;2216;53.806;11.598;2022-12-07T12:31:36;4.30;83.60
4406;DHT22;2216;53.806;11.598;2022-12-07T12:34:31;4.20;83.60
4406;DHT22;2216;53.806;11.598;2022-12-07T12:42:50;4.20;83.50
4406;DHT22;2216;53.806;11.598;2022-12-07T12:47:57;4.20;83.60
4406;DHT22;2216;53.806;11.598;2022-12-07T12:53:00;4.20;83.40
4406;DHT22;2216;53.806;11.598;2022-12-07T13:01:32;4.10;82.60
4406;DHT22;2216;53.806;11.598;2022-12-07T13:03:57;4.00;83.00
4406;DHT22;2216;53.806;11.598;2022-12-07T13:08:53;4.00;83.20
4406;DHT22;2216;53.806;11.598;2022-12-07T13:11:32;4.00;82.90
4406;DHT22;2216;53.806;11.598;2022-12-07T13:17:02;4.00;83.20
4406;DHT22;2216;53.806;11.598;2022-12-07T13:28:09;3.90;83.10
4406;DHT22;2216;53.806;11.598;2022-12-07T13:33:44;3.90;83.00
4406;DHT22;2216;53.806;11.598;2022-12-07T13:36:23;3.90;83.00
4406;DHT22;2216;53.806;11.598;2022-12-07T13:38:56;3.80;82.90
4406;DHT22;2216;53.806;11.598;2022-12-07T13:41:28;3.80;82.90
4406;DHT22;2216;53.806;11.598;2022-12-07T13:44:04;3.80;82.70
4406;DHT22;2216;53.806;11.598;2022-12-07T13:49:54;3.70;82.80
4406;DHT22;2216;53.806;11.598;2022-12-07T13:52:29;3.70;82.60
4406;DHT22;2216;53.806;11.598;2022-12-07T13:54:56;3.70;82.70
4406;DHT22;2216;53.806;11.598;2022-12-07T13:57:27;3.70;82.90
4406;DHT22;2216;53.806;11.598;2022-12-07T13:59:56;3.60;82.80
4406;DHT22;2216;53.806;11.598;2022-12-07T14:02:29;3.60;82.70
4406;DHT22;2216;53.806;11.598;2022-12-07T14:05:32;3.70;82.90
4406;DHT22;2216;53.806;11.598;2022-12-07T14:10:41;3.60;83.00
4406;DHT22;2216;53.806;11.598;2022-12-07T14:13:31;3.80;83.00
4406;DHT22;2216;53.806;11.598;2022-12-07T14:16:01;3.50;82.80
4406;DHT22;2216;53.806;11.598;2022-12-07T14:18:34;3.50;82.90
4406;DHT22;2216;53.806;11.598;2022-12-07T14:21:14;3.50;82.50
4406;DHT22;2216;53.806;11.598;2022-12-07T14:23:41;3.50;82.80
4406;DHT22;2216;53.806;11.598;2022-12-07T14:26:12;3.50;82.70
4406;DHT22;2216;53.806;11.598;2022-12-07T14:28:44;3.50;82.80
4406;DHT22;2216;53.806;11.598;2022-12-07T14:31:15;3.40;82.80
4406;DHT22;2216;53.806;11.598;2022-12-07T14:33:42;3.40;82.80
4406;DHT22;2216;53.806;11.598;2022-12-07T14:36:13;3.40;82.60
4406;DHT22;2216;53.806;11.598;2022-12-07T14:38:39;3.40;82.80
4406;DHT22;2216;53.806;11.598;2022-12-07T14:41:17;3.40;82.70
4406;DHT22;2216;53.806;11.598;2022-12-07T14:44:12;3.40;82.80
4406;DHT22;2216;53.806;11.598;2022-12-07T14:46:38;3.40;82.80
4406;DHT22;2216;53.806;11.598;2022-12-07T14:49:03;3.30;82.70
4406;DHT22;2216;53.806;11.598;2022-12-07T14:51:29;3.30;82.40
4406;DHT22;2216;53.806;11.598;2022-12-07T14:53:55;3.30;82.40
4406;DHT22;2216;53.806;11.598;2022-12-07T14:56:21;3.30;82.60
4406;DHT22;2216;53.806;11.598;2022-12-07T14:58:46;3.20;82.00
4406;DHT22;2216;53.806;11.598;2022-12-07T15:01:13;3.20;82.40
4406;DHT22;2216;53.806;11.598;2022-12-07T15:03:39;3.20;82.50
4406;DHT22;2216;53.806;11.598;2022-12-07T15:06:05;3.20;82.20
4406;DHT22;2216;53.806;11.598;2022-12-07T15:08:32;3.10;82.40
4406;DHT22;2216;53.806;11.598;2022-12-07T15:10:58;3.10;82.50
4406;DHT22;2216;53.806;11.598;2022-12-07T15:13:23;3.00;82.40
4406;DHT22;2216;53.806;11.598;2022-12-07T15:16:11;3.00;82.40
4406;DHT22;2216;53.806;11.598;2022-12-07T15:18:38;3.20;82.50
4406;DHT22;2216;53.806;11.598;2022-12-07T15:21:04;2.90;82.20
4406;DHT22;2216;53.806;11.598;2022-12-07T15:23:30;2.90;82.30
4406;DHT22;2216;53.806;11.598;2022-12-07T15:25:56;2.90;82.30
4406;DHT22;2216;53.806;11.598;2022-12-07T15:28:22;2.90;82.40
4406;DHT22;2216;53.806;11.598;2022-12-07T15:30:47;2.80;82.20
4406;DHT22;2216;53.806;11.598;2022-12-07T15:33:13;2.80;82.40
4406;DHT22;2216;53.806;11.598;2022-12-07T15:35:40;2.80;82.40
4406;DHT22;2216;53.806;11.598;2022-12-07T15:38:07;2.80;82.50
4406;DHT22;2216;53.806;11.598;2022-12-07T15:40:33;2.80;82.40
4406;DHT22;2216;53.806;11.598;2022-12-07T15:43:00;2.80;82.60
4406;DHT22;2216;53.806;11.598;2022-12-07T15:45:26;2.70;82.60
4406;DHT22;2216;53.806;11.598;2022-12-07T15:47:52;2.70;82.60
4406;DHT22;2216;53.806;11.598;2022-12-07T15:50:18;2.70;82.70
4406;DHT22;2216;53.806;11.598;2022-12-07T15:52:43;2.60;82.60
4406;DHT22;2216;53.806;11.598;2022-12-07T15:55:10;2.70;82.70
4406;DHT22;2216;53.806;11.598;2022-12-07T15:57:37;2.80;82.80
4406;DHT22;2216;53.806;11.598;2022-12-07T16:00:05;2.70;82.80
4406;DHT22;2216;53.806;11.598;2022-12-07T16:02:31;2.70;82.80
4406;DHT22;2216;53.806;11.598;2022-12-07T16:04:57;2.90;82.90
4406;DHT22;2216;53.806;11.598;2022-12-07T16:07:23;2.70;83.00
4406;DHT22;2216;53.806;11.598;2022-12-07T16:09:49;2.60;82.70
4406;DHT22;2216;53.806;11.598;2022-12-07T16:12:15;2.70;82.90
4406;DHT22;2216;53.806;11.598;2022-12-07T16:14:41;2.70;82.80
4406;DHT22;2216;53.806;11.598;2022-12-07T16:17:08;2.70;82.80
4406;DHT22;2216;53.806;11.598;2022-12-07T16:19:35;2.60;82.70
4406;DHT22;2216;53.806;11.598;2022-12-07T16:22:02;2.70;82.70
4406;DHT22;2216;53.806;11.598;2022-12-07T16:24:28;2.60;82.70
4406;DHT22;2216;53.806;11.598;2022-12-07T16:26:54;2.60;82.70
4406;DHT22;2216;53.806;11.598;2022-12-07T16:29:21;2.60;82.60
4406;DHT22;2216;53.806;11.598;2022-12-07T16:31:48;2.70;82.60
4406;DHT22;2216;53.806;11.598;2022-12-07T16:34:13;2.50;82.50
4406;DHT22;2216;53.806;11.598;2022-12-07T16:36:39;2.50;82.50
4406;DHT22;2216;53.806;11.598;2022-12-07T16:39:05;2.50;82.50
4406;DHT22;2216;53.806;11.598;2022-12-07T16:41:32;2.50;82.50
4406;DHT22;2216;53.806;11.598;2022-12-07T16:44:02;2.50;82.50
4406;DHT22;2216;53.806;11.598;2022-12-07T16:46:32;2.40;82.50
4406;DHT22;2216;53.806;11.598;2022-12-07T16:48:59;2.40;82.50
4406;DHT22;2216;53.806;11.598;2022-12-07T16:51:24;2.40;82.50
4406;DHT22;2216;53.806;11.598;2022-12-07T16:53:52;2.40;82.50
4406;DHT22;2216;53.806;11.598;2022-12-07T16:56:19;2.40;82.60
4406;DHT22;2216;53.806;11.598;2022-12-07T16:58:44;2.40;82.60
4406;DHT22;2216;53.806;11.598;2022-12-07T17:01:14;2.40;82.60
4406;DHT22;2216;53.806;11.598;2022-12-07T17:03:42;2.30;82.50
4406;DHT22;2216;53.806;11.598;2022-12-07T17:06:22;2.30;82.50
4406;DHT22;2216;53.806;11.598;2022-12-07T17:08:50;2.30;82.50
4406;DHT22;2216;53.806;11.598;2022-12-07T17:11:30;2.20;82.40
4406;DHT22;2216;53.806;11.598;2022-12-07T17:13:58;2.20;82.40
4406;DHT22;2216;53.806;11.598;2022-12-07T17:16:43;2.20;82.50
4406;DHT22;2216;53.806;11.598;2022-12-07T17:19:11;2.20;82.50
4406;DHT22;2216;53.806;11.598;2022-12-07T17:21:39;2.20;82.50
4406;DHT22;2216;53.806;11.598;2022-12-07T17:24:07;2.20;82.50
4406;DHT22;2216;53.806;11.598;2022-12-07T17:26:35;2.10;82.50
4406;DHT22;2216;53.806;11.598;2022-12-07T17:29:05;2.10;82.50
4406;DHT22;2216;53.806;11.598;2022-12-07T17:31:33;2.10;82.50
4406;DHT22;2216;53.806;11.598;2022-12-07T17:34:00;2.10;82.60
4406;DHT22;2216;53.806;11.598;2022-12-07T17:36:28;2.10;83.30
4406;DHT22;2216;53.806;11.598;2022-12-07T17:38:55;2.10;82.60
4406;DHT22;2216;53.806;11.598;2022-12-07T17:41:26;2.10;82.60
4406;DHT22;2216;53.806;11.598;2022-12-07T17:44:16;2.10;82.50
4406;DHT22;2216;53.806;11.598;2022-12-07T17:46:44;2.10;82.50
4406;DHT22;2216;53.806;11.598;2022-12-07T17:49:11;2.00;82.40
4406;DHT22;2216;53.806;11.598;2022-12-07T17:51:37;2.00;82.40
4406;DHT22;2216;53.806;11.598;2022-12-07T17:54:21;2.00;82.40
4406;DHT22;2216;53.806;11.598;2022-12-07T17:56:48;1.90;82.30
4406;DHT22;2216;53.806;11.598;2022-12-07T17:59:14;1.90;82.20
4406;DHT22;2216;53.806;11.598;2022-12-07T18:01:40;1.90;82.30
4406;DHT22;2216;53.806;11.598;2022-12-07T18:04:06;1.80;82.20
4406;DHT22;2216;53.806;11.598;2022-12-07T18:06:33;1.80;82.30
4406;DHT22;2216;53.806;11.598;2022-12-07T18:08:59;1.80;82.20
4406;DHT22;2216;53.806;11.598;2022-12-07T18:11:25;1.70;82.20
4406;DHT22;2216;53.806;11.598;2022-12-07T18:13:52;1.70;82.20
4406;DHT22;2216;53.806;11.598;2022-12-07T18:16:20;1.70;82.20
4406;DHT22;2216;53.806;11.598;2022-12-07T18:18:48;1.60;82.10
4406;DHT22;2216;53.806;11.598;2022-12-07T18:21:17;1.60;82.40